sensor_id;sensor_type;location;lat;lon;timestamp;P1;durP1;ratioP1;P2;durP2;ratioP2
74170;SDS011;62526;50.948;6.590;2022-10-31T00:01:52;19.98;;;8.05;;
74170;SDS011;62526;50.948;6.590;2022-10-31T00:04:18;14.80;;;7.80;;
74170;SDS011;62526;50.948;6.590;2022-10-31T00:06:46;13.55;;;7.35;;
74170;SDS011;62526;50.948;6.590;2022-10-31T00:09:13;18.37;;;7.20;;
74170;SDS011;62526;50.948;6.590;2022-10-31T00:11:39;15.05;;;7.47;;
74170;SDS011;62526;50.948;6.590;2022-10-31T00:14:06;18.85;;;7.53;;
74170;SDS011;62526;50.948;6.590;2022-10-31T00:16:33;15.20;;;8.45;;
74170;SDS011;62526;50.948;6.590;2022-10-31T00:19:00;16.87;;;8.30;;
74170;SDS011;62526;50.948;6.590;2022-10-31T00:21:26;18.02;;;8.50;;
74170;SDS011;62526;50.948;6.590;2022-10-31T00:23:53;15.65;;;8.10;;
74170;SDS011;62526;50.948;6.590;2022-10-31T00:26:19;15.75;;;8.77;;
74170;SDS011;62526;50.948;6.590;2022-10-31T00:28:46;13.80;;;7.10;;
74170;SDS011;62526;50.948;6.590;2022-10-31T00:31:13;12.55;;;6.65;;
74170;SDS011;62526;50.948;6.590;2022-10-31T00:33:39;15.85;;;7.22;;
74170;SDS011;62526;50.948;6.590;2022-10-31T00:36:06;13.93;;;7.35;;
74170;SDS011;62526;50.948;6.590;2022-10-31T00:38:33;16.90;;;8.20;;
74170;SDS011;62526;50.948;6.590;2022-10-31T00:41:00;15.10;;;8.23;;
74170;SDS011;62526;50.948;6.590;2022-10-31T00:43:27;22.27;;;7.90;;
74170;SDS011;62526;50.948;6.590;2022-10-31T00:45:54;22.35;;;7.82;;
74170;SDS011;62526;50.948;6.590;2022-10-31T00:48:20;19.80;;;7.25;;
74170;SDS011;62526;50.948;6.590;2022-10-31T00:50:47;17.00;;;7.72;;
74170;SDS011;62526;50.948;6.590;2022-10-31T00:53:13;30.10;;;8.73;;
74170;SDS011;62526;50.948;6.590;2022-10-31T00:55:40;18.30;;;8.52;;
74170;SDS011;62526;50.948;6.590;2022-10-31T00:58:07;14.15;;;7.75;;
74170;SDS011;62526;50.948;6.590;2022-10-31T01:00:33;24.90;;;8.52;;
74170;SDS011;62526;50.948;6.590;2022-10-31T01:03:00;17.65;;;7.95;;
74170;SDS011;62526;50.948;6.590;2022-10-31T01:05:26;27.67;;;8.10;;
74170;SDS011;62526;50.948;6.590;2022-10-31T01:07:53;17.00;;;7.35;;
74170;SDS011;62526;50.948;6.590;2022-10-31T01:10:20;18.27;;;8.00;;
74170;SDS011;62526;50.948;6.590;2022-10-31T01:12:47;21.37;;;7.93;;
74170;SDS011;62526;50.948;6.590;2022-10-31T01:15:14;20.12;;;7.15;;
74170;SDS011;62526;50.948;6.590;2022-10-31T01:17:40;17.37;;;7.55;;
74170;SDS011;62526;50.948;6.590;2022-10-31T01:20:07;18.70;;;7.47;;
74170;SDS011;62526;50.948;6.590;2022-10-31T01:22:34;17.55;;;6.97;;
74170;SDS011;62526;50.948;6.590;2022-10-31T01:25:00;23.38;;;7.72;;
74170;SDS011;62526;50.948;6.590;2022-10-31T01:27:27;17.45;;;7.10;;
74170;SDS011;62526;50.948;6.590;2022-10-31T01:29:54;14.82;;;7.47;;
74170;SDS011;62526;50.948;6.590;2022-10-31T01:32:20;23.48;;;6.57;;
74170;SDS011;62526;50.948;6.590;2022-10-31T01:34:47;12.23;;;6.85;;
74170;SDS011;62526;50.948;6.590;2022-10-31T01:37:14;16.40;;;7.12;;
74170;SDS011;62526;50.948;6.590;2022-10-31T01:39:41;12.75;;;6.90;;
74170;SDS011;62526;50.948;6.590;2022-10-31T01:42:09;17.40;;;6.80;;
74170;SDS011;62526;50.948;6.590;2022-10-31T01:47:17;18.42;;;7.03;;
74170;SDS011;62526;50.948;6.590;2022-10-31T01:49:46;17.08;;;7.32;;
74170;SDS011;62526;50.948;6.590;2022-10-31T01:52:20;17.27;;;6.95;;
74170;SDS011;62526;50.948;6.590;2022-10-31T01:54:50;17.45;;;7.10;;
74170;SDS011;62526;50.948;6.590;2022-10-31T01:57:15;24.60;;;7.18;;
74170;SDS011;62526;50.948;6.590;2022-10-31T01:59:42;20.17;;;7.60;;
74170;SDS011;62526;50.948;6.590;2022-10-31T02:02:08;14.05;;;6.18;;
74170;SDS011;62526;50.948;6.590;2022-10-31T02:04:35;21.70;;;6.82;;
74170;SDS011;62526;50.948;6.590;2022-10-31T02:07:04;15.75;;;6.20;;
74170;SDS011;62526;50.948;6.590;2022-10-31T02:09:31;21.30;;;7.03;;
74170;SDS011;62526;50.948;6.590;2022-10-31T02:11:58;7.95;;;5.10;;
74170;SDS011;62526;50.948;6.590;2022-10-31T02:14:25;12.10;;;5.93;;
74170;SDS011;62526;50.948;6.590;2022-10-31T02:16:51;14.85;;;5.95;;
74170;SDS011;62526;50.948;6.590;2022-10-31T02:19:21;15.00;;;6.22;;
74170;SDS011;62526;50.948;6.590;2022-10-31T02:21:49;16.52;;;6.87;;
74170;SDS011;62526;50.948;6.590;2022-10-31T02:24:24;12.07;;;5.80;;
74170;SDS011;62526;50.948;6.590;2022-10-31T02:26:52;17.65;;;6.75;;
74170;SDS011;62526;50.948;6.590;2022-10-31T02:29:25;12.18;;;7.00;;
74170;SDS011;62526;50.948;6.590;2022-10-31T02:31:52;13.68;;;7.68;;
74170;SDS011;62526;50.948;6.590;2022-10-31T02:34:22;15.23;;;7.10;;
74170;SDS011;62526;50.948;6.590;2022-10-31T02:36:56;12.20;;;6.50;;
74170;SDS011;62526;50.948;6.590;2022-10-31T02:39:30;17.23;;;6.43;;
74170;SDS011;62526;50.948;6.590;2022-10-31T02:47:05;15.10;;;6.28;;
74170;SDS011;62526;50.948;6.590;2022-10-31T02:49:37;17.62;;;6.40;;
74170;SDS011;62526;50.948;6.590;2022-10-31T02:52:13;13.30;;;5.95;;
74170;SDS011;62526;50.948;6.590;2022-10-31T02:54:40;15.18;;;6.25;;
74170;SDS011;62526;50.948;6.590;2022-10-31T02:57:06;17.10;;;6.62;;
74170;SDS011;62526;50.948;6.590;2022-10-31T02:59:33;12.35;;;6.60;;
74170;SDS011;62526;50.948;6.590;2022-10-31T03:02:07;17.80;;;6.75;;
74170;SDS011;62526;50.948;6.590;2022-10-31T03:04:47;12.80;;;6.55;;
74170;SDS011;62526;50.948;6.590;2022-10-31T03:07:25;18.52;;;6.60;;
74170;SDS011;62526;50.948;6.590;2022-10-31T03:10:04;13.90;;;7.40;;
74170;SDS011;62526;50.948;6.590;2022-10-31T03:12:37;13.73;;;6.82;;
74170;SDS011;62526;50.948;6.590;2022-10-31T03:15:11;14.02;;;6.70;;
74170;SDS011;62526;50.948;6.590;2022-10-31T03:17:37;16.70;;;6.32;;
74170;SDS011;62526;50.948;6.590;2022-10-31T03:20:03;10.95;;;6.03;;
74170;SDS011;62526;50.948;6.590;2022-10-31T03:22:31;13.73;;;6.45;;
74170;SDS011;62526;50.948;6.590;2022-10-31T03:24:56;15.70;;;6.18;;
74170;SDS011;62526;50.948;6.590;2022-10-31T03:27:24;18.52;;;6.50;;
74170;SDS011;62526;50.948;6.590;2022-10-31T03:29:50;13.60;;;6.50;;
74170;SDS011;62526;50.948;6.590;2022-10-31T03:32:18;10.32;;;6.22;;
74170;SDS011;62526;50.948;6.590;2022-10-31T03:34:45;10.70;;;5.72;;
74170;SDS011;62526;50.948;6.590;2022-10-31T03:37:12;16.58;;;6.43;;
74170;SDS011;62526;50.948;6.590;2022-10-31T03:39:38;10.93;;;6.35;;
74170;SDS011;62526;50.948;6.590;2022-10-31T03:42:05;14.13;;;6.60;;
74170;SDS011;62526;50.948;6.590;2022-10-31T03:44:32;13.50;;;6.60;;
74170;SDS011;62526;50.948;6.590;2022-10-31T03:46:58;11.02;;;6.40;;
74170;SDS011;62526;50.948;6.590;2022-10-31T03:49:26;12.27;;;7.05;;
74170;SDS011;62526;50.948;6.590;2022-10-31T03:51:55;12.35;;;6.18;;
74170;SDS011;62526;50.948;6.590;2022-10-31T03:54:40;13.27;;;6.20;;
74170;SDS011;62526;50.948;6.590;2022-10-31T03:57:13;10.93;;;5.90;;
74170;SDS011;62526;50.948;6.590;2022-10-31T03:59:40;17.70;;;7.65;;
74170;SDS011;62526;50.948;6.590;2022-10-31T04:02:07;14.85;;;6.45;;
74170;SDS011;62526;50.948;6.590;2022-10-31T04:04:33;14.73;;;6.70;;
74170;SDS011;62526;50.948;6.590;2022-10-31T04:06:59;21.65;;;7.45;;
74170;SDS011;62526;50.948;6.590;2022-10-31T04:09:27;11.02;;;6.60;;
74170;SDS011;62526;50.948;6.590;2022-10-31T04:11:53;13.75;;;6.50;;
74170;SDS011;62526;50.948;6.590;2022-10-31T04:14:20;13.90;;;7.00;;
74170;SDS011;62526;50.948;6.590;2022-10-31T04:16:46;14.45;;;6.40;;
74170;SDS011;62526;50.948;6.590;2022-10-31T04:19:13;11.48;;;6.28;;
74170;SDS011;62526;50.948;6.590;2022-10-31T04:21:40;12.70;;;6.28;;
74170;SDS011;62526;50.948;6.590;2022-10-31T04:24:07;13.52;;;6.28;;
74170;SDS011;62526;50.948;6.590;2022-10-31T04:26:33;12.00;;;5.90;;
74170;SDS011;62526;50.948;6.590;2022-10-31T04:29:00;15.25;;;5.65;;
74170;SDS011;62526;50.948;6.590;2022-10-31T04:31:27;12.73;;;6.55;;
74170;SDS011;62526;50.948;6.590;2022-10-31T04:33:54;13.70;;;6.22;;
74170;SDS011;62526;50.948;6.590;2022-10-31T04:36:20;15.02;;;6.75;;
74170;SDS011;62526;50.948;6.590;2022-10-31T04:38:47;9.43;;;5.95;;
74170;SDS011;62526;50.948;6.590;2022-10-31T04:41:14;16.55;;;7.22;;
74170;SDS011;62526;50.948;6.590;2022-10-31T04:43:41;15.88;;;5.97;;
74170;SDS011;62526;50.948;6.590;2022-10-31T04:46:07;9.48;;;6.20;;
74170;SDS011;62526;50.948;6.590;2022-10-31T04:48:34;17.42;;;6.85;;
74170;SDS011;62526;50.948;6.590;2022-10-31T04:51:01;15.90;;;7.15;;
74170;SDS011;62526;50.948;6.590;2022-10-31T04:53:28;14.30;;;5.90;;
74170;SDS011;62526;50.948;6.590;2022-10-31T04:55:54;8.77;;;6.37;;
74170;SDS011;62526;50.948;6.590;2022-10-31T04:58:21;16.83;;;6.30;;
74170;SDS011;62526;50.948;6.590;2022-10-31T05:00:50;12.48;;;6.20;;
74170;SDS011;62526;50.948;6.590;2022-10-31T05:03:14;16.75;;;6.93;;
74170;SDS011;62526;50.948;6.590;2022-10-31T05:05:41;11.20;;;7.05;;
74170;SDS011;62526;50.948;6.590;2022-10-31T05:08:07;21.73;;;5.95;;
74170;SDS011;62526;50.948;6.590;2022-10-31T05:10:34;14.23;;;5.97;;
74170;SDS011;62526;50.948;6.590;2022-10-31T05:13:01;13.55;;;6.72;;
74170;SDS011;62526;50.948;6.590;2022-10-31T05:15:27;10.93;;;6.03;;
74170;SDS011;62526;50.948;6.590;2022-10-31T05:17:54;13.43;;;6.60;;
74170;SDS011;62526;50.948;6.590;2022-10-31T05:20:22;19.25;;;6.10;;
74170;SDS011;62526;50.948;6.590;2022-10-31T05:22:48;14.77;;;6.40;;
74170;SDS011;62526;50.948;6.590;2022-10-31T05:25:14;16.45;;;6.25;;
74170;SDS011;62526;50.948;6.590;2022-10-31T05:27:42;13.65;;;6.12;;
74170;SDS011;62526;50.948;6.590;2022-10-31T05:30:08;12.55;;;6.00;;
74170;SDS011;62526;50.948;6.590;2022-10-31T05:32:36;13.15;;;5.97;;
74170;SDS011;62526;50.948;6.590;2022-10-31T05:35:06;13.10;;;6.97;;
74170;SDS011;62526;50.948;6.590;2022-10-31T05:37:33;15.07;;;5.95;;
74170;SDS011;62526;50.948;6.590;2022-10-31T05:39:59;15.75;;;6.32;;
74170;SDS011;62526;50.948;6.590;2022-10-31T05:42:26;17.45;;;6.55;;
74170;SDS011;62526;50.948;6.590;2022-10-31T05:44:53;14.48;;;6.30;;
74170;SDS011;62526;50.948;6.590;2022-10-31T05:47:19;15.83;;;7.00;;
74170;SDS011;62526;50.948;6.590;2022-10-31T05:49:46;13.82;;;6.65;;
74170;SDS011;62526;50.948;6.590;2022-10-31T05:52:12;14.55;;;6.53;;
74170;SDS011;62526;50.948;6.590;2022-10-31T05:54:40;12.68;;;5.87;;
74170;SDS011;62526;50.948;6.590;2022-10-31T05:57:07;12.30;;;6.45;;
74170;SDS011;62526;50.948;6.590;2022-10-31T05:59:33;12.30;;;6.75;;
74170;SDS011;62526;50.948;6.590;2022-10-31T06:02:00;14.25;;;6.85;;
74170;SDS011;62526;50.948;6.590;2022-10-31T06:04:27;11.93;;;5.80;;
74170;SDS011;62526;50.948;6.590;2022-10-31T06:06:53;7.72;;;5.72;;
74170;SDS011;62526;50.948;6.590;2022-10-31T06:09:20;15.52;;;6.47;;
74170;SDS011;62526;50.948;6.590;2022-10-31T06:11:47;14.23;;;6.55;;
74170;SDS011;62526;50.948;6.590;2022-10-31T06:14:13;10.05;;;6.37;;
74170;SDS011;62526;50.948;6.590;2022-10-31T06:16:40;14.20;;;7.32;;
74170;SDS011;62526;50.948;6.590;2022-10-31T06:19:07;12.63;;;6.40;;
74170;SDS011;62526;50.948;6.590;2022-10-31T06:21:34;13.35;;;7.10;;
74170;SDS011;62526;50.948;6.590;2022-10-31T06:24:02;17.98;;;6.90;;
74170;SDS011;62526;50.948;6.590;2022-10-31T06:26:28;15.80;;;6.65;;
74170;SDS011;62526;50.948;6.590;2022-10-31T06:28:55;13.20;;;6.40;;
74170;SDS011;62526;50.948;6.590;2022-10-31T06:31:22;12.73;;;7.93;;
74170;SDS011;62526;50.948;6.590;2022-10-31T06:33:48;15.63;;;6.72;;
74170;SDS011;62526;50.948;6.590;2022-10-31T06:36:15;19.48;;;6.90;;
74170;SDS011;62526;50.948;6.590;2022-10-31T06:38:42;16.10;;;6.80;;
74170;SDS011;62526;50.948;6.590;2022-10-31T06:41:08;15.07;;;6.68;;
74170;SDS011;62526;50.948;6.590;2022-10-31T06:43:35;14.87;;;6.40;;
74170;SDS011;62526;50.948;6.590;2022-10-31T06:46:02;11.10;;;7.47;;
74170;SDS011;62526;50.948;6.590;2022-10-31T06:48:28;18.73;;;7.60;;
74170;SDS011;62526;50.948;6.590;2022-10-31T06:50:58;16.65;;;7.32;;
74170;SDS011;62526;50.948;6.590;2022-10-31T06:53:25;18.52;;;7.60;;
74170;SDS011;62526;50.948;6.590;2022-10-31T06:55:51;13.20;;;6.25;;
74170;SDS011;62526;50.948;6.590;2022-10-31T06:58:18;17.47;;;6.83;;
74170;SDS011;62526;50.948;6.590;2022-10-31T07:00:44;14.85;;;7.97;;
74170;SDS011;62526;50.948;6.590;2022-10-31T07:03:12;21.62;;;7.55;;
74170;SDS011;62526;50.948;6.590;2022-10-31T07:05:38;14.90;;;6.80;;
74170;SDS011;62526;50.948;6.590;2022-10-31T07:08:07;12.80;;;7.47;;
74170;SDS011;62526;50.948;6.590;2022-10-31T07:10:33;12.37;;;7.05;;
74170;SDS011;62526;50.948;6.590;2022-10-31T07:13:00;13.93;;;8.38;;
74170;SDS011;62526;50.948;6.590;2022-10-31T07:15:26;19.95;;;8.10;;
74170;SDS011;62526;50.948;6.590;2022-10-31T07:17:53;16.30;;;7.30;;
74170;SDS011;62526;50.948;6.590;2022-10-31T07:20:19;15.73;;;7.47;;
74170;SDS011;62526;50.948;6.590;2022-10-31T07:22:46;11.77;;;7.03;;
74170;SDS011;62526;50.948;6.590;2022-10-31T07:25:13;17.52;;;7.25;;
74170;SDS011;62526;50.948;6.590;2022-10-31T07:27:40;20.55;;;8.18;;
74170;SDS011;62526;50.948;6.590;2022-10-31T07:30:06;15.82;;;7.60;;
74170;SDS011;62526;50.948;6.590;2022-10-31T07:32:39;14.80;;;7.60;;
74170;SDS011;62526;50.948;6.590;2022-10-31T07:35:07;11.07;;;8.02;;
74170;SDS011;62526;50.948;6.590;2022-10-31T07:37:34;17.95;;;9.82;;
74170;SDS011;62526;50.948;6.590;2022-10-31T07:40:00;17.05;;;8.98;;
74170;SDS011;62526;50.948;6.590;2022-10-31T07:42:27;20.35;;;9.32;;
74170;SDS011;62526;50.948;6.590;2022-10-31T07:44:54;15.50;;;9.35;;
74170;SDS011;62526;50.948;6.590;2022-10-31T07:47:21;20.45;;;9.48;;
74170;SDS011;62526;50.948;6.590;2022-10-31T07:49:47;19.02;;;8.63;;
74170;SDS011;62526;50.948;6.590;2022-10-31T07:52:15;17.15;;;9.13;;
74170;SDS011;62526;50.948;6.590;2022-10-31T07:54:42;13.60;;;8.18;;
74170;SDS011;62526;50.948;6.590;2022-10-31T07:57:09;16.90;;;8.73;;
74170;SDS011;62526;50.948;6.590;2022-10-31T07:59:36;18.12;;;8.48;;
74170;SDS011;62526;50.948;6.590;2022-10-31T08:02:03;15.55;;;9.02;;
74170;SDS011;62526;50.948;6.590;2022-10-31T08:04:29;23.50;;;8.48;;
74170;SDS011;62526;50.948;6.590;2022-10-31T08:06:56;24.25;;;9.43;;
74170;SDS011;62526;50.948;6.590;2022-10-31T08:09:23;13.90;;;8.50;;
74170;SDS011;62526;50.948;6.590;2022-10-31T08:11:50;14.27;;;7.43;;
74170;SDS011;62526;50.948;6.590;2022-10-31T08:14:17;15.75;;;8.73;;
74170;SDS011;62526;50.948;6.590;2022-10-31T08:16:44;15.68;;;8.23;;
74170;SDS011;62526;50.948;6.590;2022-10-31T08:19:11;17.98;;;8.40;;
74170;SDS011;62526;50.948;6.590;2022-10-31T08:21:37;17.95;;;8.63;;
74170;SDS011;62526;50.948;6.590;2022-10-31T08:24:04;15.57;;;9.00;;
74170;SDS011;62526;50.948;6.590;2022-10-31T08:26:31;15.27;;;9.05;;
74170;SDS011;62526;50.948;6.590;2022-10-31T08:28:58;13.82;;;8.40;;
74170;SDS011;62526;50.948;6.590;2022-10-31T08:31:24;16.65;;;7.95;;
74170;SDS011;62526;50.948;6.590;2022-10-31T08:33:52;19.37;;;8.70;;
74170;SDS011;62526;50.948;6.590;2022-10-31T08:36:18;18.08;;;8.88;;
74170;SDS011;62526;50.948;6.590;2022-10-31T08:38:46;17.67;;;8.13;;
74170;SDS011;62526;50.948;6.590;2022-10-31T08:41:11;18.27;;;9.15;;
74170;SDS011;62526;50.948;6.590;2022-10-31T08:43:38;19.92;;;8.75;;
74170;SDS011;62526;50.948;6.590;2022-10-31T08:46:04;15.18;;;8.07;;
74170;SDS011;62526;50.948;6.590;2022-10-31T08:48:31;15.80;;;8.70;;
74170;SDS011;62526;50.948;6.590;2022-10-31T08:50:58;20.02;;;8.95;;
74170;SDS011;62526;50.948;6.590;2022-10-31T08:53:25;19.50;;;8.55;;
74170;SDS011;62526;50.948;6.590;2022-10-31T08:55:53;16.85;;;8.38;;
74170;SDS011;62526;50.948;6.590;2022-10-31T08:58:18;16.42;;;7.93;;
74170;SDS011;62526;50.948;6.590;2022-10-31T09:00:45;14.57;;;8.38;;
74170;SDS011;62526;50.948;6.590;2022-10-31T09:03:12;12.55;;;7.82;;
74170;SDS011;62526;50.948;6.590;2022-10-31T09:05:38;13.52;;;7.75;;
74170;SDS011;62526;50.948;6.590;2022-10-31T09:08:05;14.90;;;7.80;;
74170;SDS011;62526;50.948;6.590;2022-10-31T09:10:33;11.95;;;7.85;;
74170;SDS011;62526;50.948;6.590;2022-10-31T09:13:01;18.58;;;8.90;;
74170;SDS011;62526;50.948;6.590;2022-10-31T09:15:27;18.77;;;8.57;;
74170;SDS011;62526;50.948;6.590;2022-10-31T09:17:53;18.77;;;9.27;;
74170;SDS011;62526;50.948;6.590;2022-10-31T09:20:20;19.83;;;9.60;;
74170;SDS011;62526;50.948;6.590;2022-10-31T09:22:47;20.27;;;10.00;;
74170;SDS011;62526;50.948;6.590;2022-10-31T09:25:13;18.45;;;10.75;;
74170;SDS011;62526;50.948;6.590;2022-10-31T09:27:40;24.30;;;11.90;;
74170;SDS011;62526;50.948;6.590;2022-10-31T09:30:08;27.67;;;12.75;;
74170;SDS011;62526;50.948;6.590;2022-10-31T09:32:35;27.10;;;13.65;;
74170;SDS011;62526;50.948;6.590;2022-10-31T09:35:01;33.78;;;13.30;;
74170;SDS011;62526;50.948;6.590;2022-10-31T09:37:28;26.83;;;12.75;;
74170;SDS011;62526;50.948;6.590;2022-10-31T09:39:55;23.67;;;12.77;;
74170;SDS011;62526;50.948;6.590;2022-10-31T09:45:03;25.10;;;13.52;;
74170;SDS011;62526;50.948;6.590;2022-10-31T09:47:33;33.80;;;13.13;;
74170;SDS011;62526;50.948;6.590;2022-10-31T09:50:14;29.77;;;14.00;;
74170;SDS011;62526;50.948;6.590;2022-10-31T09:52:41;23.80;;;12.30;;
74170;SDS011;62526;50.948;6.590;2022-10-31T09:55:12;27.25;;;11.23;;
74170;SDS011;62526;50.948;6.590;2022-10-31T09:57:35;24.70;;;10.85;;
74170;SDS011;62526;50.948;6.590;2022-10-31T10:00:04;22.87;;;10.45;;
74170;SDS011;62526;50.948;6.590;2022-10-31T10:02:32;20.98;;;10.35;;
74170;SDS011;62526;50.948;6.590;2022-10-31T10:05:19;22.42;;;10.43;;
74170;SDS011;62526;50.948;6.590;2022-10-31T10:07:53;18.48;;;10.32;;
74170;SDS011;62526;50.948;6.590;2022-10-31T10:10:48;19.27;;;9.60;;
74170;SDS011;62526;50.948;6.590;2022-10-31T10:13:24;19.50;;;8.77;;
74170;SDS011;62526;50.948;6.590;2022-10-31T10:15:56;16.90;;;8.93;;
74170;SDS011;62526;50.948;6.590;2022-10-31T10:18:38;22.45;;;9.45;;
74170;SDS011;62526;50.948;6.590;2022-10-31T10:21:39;24.70;;;9.50;;
74170;SDS011;62526;50.948;6.590;2022-10-31T10:24:12;25.98;;;10.13;;
74170;SDS011;62526;50.948;6.590;2022-10-31T10:26:50;27.50;;;11.35;;
74170;SDS011;62526;50.948;6.590;2022-10-31T10:29:32;26.90;;;11.85;;
74170;SDS011;62526;50.948;6.590;2022-10-31T10:31:58;22.70;;;10.82;;
74170;SDS011;62526;50.948;6.590;2022-10-31T10:34:26;28.55;;;11.98;;
74170;SDS011;62526;50.948;6.590;2022-10-31T10:36:53;33.83;;;13.68;;
74170;SDS011;62526;50.948;6.590;2022-10-31T10:39:21;25.62;;;13.30;;
74170;SDS011;62526;50.948;6.590;2022-10-31T10:41:47;22.08;;;11.38;;
74170;SDS011;62526;50.948;6.590;2022-10-31T10:44:13;23.85;;;10.93;;
74170;SDS011;62526;50.948;6.590;2022-10-31T10:46:41;20.83;;;10.27;;
74170;SDS011;62526;50.948;6.590;2022-10-31T10:49:16;17.70;;;10.07;;
74170;SDS011;62526;50.948;6.590;2022-10-31T10:51:45;19.75;;;9.98;;
74170;SDS011;62526;50.948;6.590;2022-10-31T10:54:20;17.65;;;9.15;;
74170;SDS011;62526;50.948;6.590;2022-10-31T10:57:10;16.73;;;8.73;;
74170;SDS011;62526;50.948;6.590;2022-10-31T10:59:35;21.40;;;9.02;;
74170;SDS011;62526;50.948;6.590;2022-10-31T11:02:02;20.25;;;6.70;;
74170;SDS011;62526;50.948;6.590;2022-10-31T11:04:30;16.02;;;7.03;;
74170;SDS011;62526;50.948;6.590;2022-10-31T11:07:07;13.60;;;7.07;;
74170;SDS011;62526;50.948;6.590;2022-10-31T11:09:35;19.30;;;7.12;;
74170;SDS011;62526;50.948;6.590;2022-10-31T11:12:07;15.63;;;7.45;;
74170;SDS011;62526;50.948;6.590;2022-10-31T11:14:36;26.85;;;8.13;;
74170;SDS011;62526;50.948;6.590;2022-10-31T11:17:09;13.40;;;7.85;;
74170;SDS011;62526;50.948;6.590;2022-10-31T11:19:33;17.67;;;7.35;;
74170;SDS011;62526;50.948;6.590;2022-10-31T11:22:06;14.60;;;6.97;;
74170;SDS011;62526;50.948;6.590;2022-10-31T11:24:35;13.75;;;6.30;;
74170;SDS011;62526;50.948;6.590;2022-10-31T11:27:07;16.62;;;6.25;;
74170;SDS011;62526;50.948;6.590;2022-10-31T11:29:29;14.25;;;6.32;;
74170;SDS011;62526;50.948;6.590;2022-10-31T11:31:56;13.10;;;5.82;;
74170;SDS011;62526;50.948;6.590;2022-10-31T11:34:32;13.32;;;6.47;;
74170;SDS011;62526;50.948;6.590;2022-10-31T11:37:01;13.55;;;5.80;;
74170;SDS011;62526;50.948;6.590;2022-10-31T11:39:25;14.93;;;5.85;;
74170;SDS011;62526;50.948;6.590;2022-10-31T11:41:52;10.27;;;6.20;;
74170;SDS011;62526;50.948;6.590;2022-10-31T11:44:22;18.35;;;5.72;;
74170;SDS011;62526;50.948;6.590;2022-10-31T11:46:52;11.60;;;6.05;;
74170;SDS011;62526;50.948;6.590;2022-10-31T11:49:19;12.20;;;6.65;;
74170;SDS011;62526;50.948;6.590;2022-10-31T11:51:47;15.13;;;7.12;;
74170;SDS011;62526;50.948;6.590;2022-10-31T11:54:19;15.80;;;6.18;;
74170;SDS011;62526;50.948;6.590;2022-10-31T11:56:42;13.52;;;6.55;;
74170;SDS011;62526;50.948;6.590;2022-10-31T11:59:29;17.23;;;7.43;;
74170;SDS011;62526;50.948;6.590;2022-10-31T12:01:55;11.80;;;5.95;;
74170;SDS011;62526;50.948;6.590;2022-10-31T12:04:27;20.10;;;6.50;;
74170;SDS011;62526;50.948;6.590;2022-10-31T12:06:56;16.08;;;6.85;;
74170;SDS011;62526;50.948;6.590;2022-10-31T12:09:24;17.67;;;7.15;;
74170;SDS011;62526;50.948;6.590;2022-10-31T12:11:58;13.13;;;6.43;;
74170;SDS011;62526;50.948;6.590;2022-10-31T12:17:20;11.30;;;5.87;;
74170;SDS011;62526;50.948;6.590;2022-10-31T12:22:36;12.43;;;5.82;;
74170;SDS011;62526;50.948;6.590;2022-10-31T12:27:54;11.38;;;5.28;;
74170;SDS011;62526;50.948;6.590;2022-10-31T12:30:26;15.90;;;6.37;;
74170;SDS011;62526;50.948;6.590;2022-10-31T12:36:29;15.30;;;6.55;;
74170;SDS011;62526;50.948;6.590;2022-10-31T12:38:41;17.87;;;6.03;;
74170;SDS011;62526;50.948;6.590;2022-10-31T12:41:30;12.52;;;5.78;;
74170;SDS011;62526;50.948;6.590;2022-10-31T12:44:11;12.50;;;6.15;;
74170;SDS011;62526;50.948;6.590;2022-10-31T12:49:43;23.05;;;5.68;;
74170;SDS011;62526;50.948;6.590;2022-10-31T12:52:16;19.45;;;6.87;;
74170;SDS011;62526;50.948;6.590;2022-10-31T12:54:48;15.95;;;6.40;;
74170;SDS011;62526;50.948;6.590;2022-10-31T12:57:29;13.38;;;5.78;;
74170;SDS011;62526;50.948;6.590;2022-10-31T13:00:00;15.77;;;6.40;;
74170;SDS011;62526;50.948;6.590;2022-10-31T13:02:38;16.48;;;6.75;;
74170;SDS011;62526;50.948;6.590;2022-10-31T13:05:26;11.63;;;5.75;;
74170;SDS011;62526;50.948;6.590;2022-10-31T13:08:06;12.70;;;6.12;;
74170;SDS011;62526;50.948;6.590;2022-10-31T13:10:35;15.25;;;6.28;;
74170;SDS011;62526;50.948;6.590;2022-10-31T13:13:04;15.77;;;6.60;;
74170;SDS011;62526;50.948;6.590;2022-10-31T13:15:28;16.67;;;6.85;;
74170;SDS011;62526;50.948;6.590;2022-10-31T13:17:56;18.90;;;6.87;;
74170;SDS011;62526;50.948;6.590;2022-10-31T13:20:25;13.00;;;6.05;;
74170;SDS011;62526;50.948;6.590;2022-10-31T13:22:52;26.92;;;7.50;;
74170;SDS011;62526;50.948;6.590;2022-10-31T13:25:19;19.12;;;7.18;;
74170;SDS011;62526;50.948;6.590;2022-10-31T13:27:55;15.35;;;6.50;;
74170;SDS011;62526;50.948;6.590;2022-10-31T13:30:25;20.83;;;5.78;;
74170;SDS011;62526;50.948;6.590;2022-10-31T13:33:02;12.65;;;5.82;;
74170;SDS011;62526;50.948;6.590;2022-10-31T13:35:41;14.57;;;5.82;;
74170;SDS011;62526;50.948;6.590;2022-10-31T13:41:02;14.50;;;6.03;;
74170;SDS011;62526;50.948;6.590;2022-10-31T13:43:32;13.75;;;5.93;;
74170;SDS011;62526;50.948;6.590;2022-10-31T13:46:20;11.98;;;5.47;;
74170;SDS011;62526;50.948;6.590;2022-10-31T13:48:34;11.75;;;5.22;;
74170;SDS011;62526;50.948;6.590;2022-10-31T13:51:00;15.57;;;5.37;;
74170;SDS011;62526;50.948;6.590;2022-10-31T13:56:20;10.95;;;4.80;;
74170;SDS011;62526;50.948;6.590;2022-10-31T14:01:24;13.15;;;6.18;;
74170;SDS011;62526;50.948;6.590;2022-10-31T14:03:58;13.35;;;5.07;;
74170;SDS011;62526;50.948;6.590;2022-10-31T14:06:34;11.77;;;5.25;;
74170;SDS011;62526;50.948;6.590;2022-10-31T14:08:51;20.90;;;5.43;;
74170;SDS011;62526;50.948;6.590;2022-10-31T14:11:22;13.70;;;6.43;;
74170;SDS011;62526;50.948;6.590;2022-10-31T14:13:53;14.13;;;5.25;;
74170;SDS011;62526;50.948;6.590;2022-10-31T14:16:23;14.50;;;5.22;;
74170;SDS011;62526;50.948;6.590;2022-10-31T14:18:56;12.88;;;5.37;;
74170;SDS011;62526;50.948;6.590;2022-10-31T14:21:27;11.63;;;4.97;;
74170;SDS011;62526;50.948;6.590;2022-10-31T14:23:54;11.57;;;5.28;;
74170;SDS011;62526;50.948;6.590;2022-10-31T14:26:31;11.45;;;5.03;;
74170;SDS011;62526;50.948;6.590;2022-10-31T14:29:01;12.98;;;4.97;;
74170;SDS011;62526;50.948;6.590;2022-10-31T14:31:32;14.10;;;5.25;;
74170;SDS011;62526;50.948;6.590;2022-10-31T14:33:59;15.93;;;5.15;;
74170;SDS011;62526;50.948;6.590;2022-10-31T14:36:34;15.02;;;5.05;;
74170;SDS011;62526;50.948;6.590;2022-10-31T14:39:11;14.07;;;5.28;;
74170;SDS011;62526;50.948;6.590;2022-10-31T14:41:45;16.25;;;4.95;;
74170;SDS011;62526;50.948;6.590;2022-10-31T14:44:16;19.15;;;4.78;;
74170;SDS011;62526;50.948;6.590;2022-10-31T14:47:01;17.60;;;5.00;;
74170;SDS011;62526;50.948;6.590;2022-10-31T14:49:46;12.27;;;5.10;;
74170;SDS011;62526;50.948;6.590;2022-10-31T14:52:26;13.27;;;5.20;;
74170;SDS011;62526;50.948;6.590;2022-10-31T14:54:53;13.40;;;5.35;;
74170;SDS011;62526;50.948;6.590;2022-10-31T14:57:21;18.05;;;5.75;;
74170;SDS011;62526;50.948;6.590;2022-10-31T14:59:49;14.25;;;4.60;;
74170;SDS011;62526;50.948;6.590;2022-10-31T15:02:15;15.07;;;5.12;;
74170;SDS011;62526;50.948;6.590;2022-10-31T15:04:41;13.52;;;5.12;;
74170;SDS011;62526;50.948;6.590;2022-10-31T15:07:11;14.27;;;4.82;;
74170;SDS011;62526;50.948;6.590;2022-10-31T15:09:37;12.48;;;4.57;;
74170;SDS011;62526;50.948;6.590;2022-10-31T15:14:39;20.25;;;4.80;;
74170;SDS011;62526;50.948;6.590;2022-10-31T15:17:06;13.13;;;4.35;;
74170;SDS011;62526;50.948;6.590;2022-10-31T15:19:32;10.77;;;4.55;;